createdAt,value
2023-02-18T00:02:09.334Z,11.10
2023-02-18T00:05:31.018Z,11.10
2023-02-18T00:08:52.819Z,11.10
2023-02-18T00:12:14.746Z,11.10
2023-02-18T00:15:37.123Z,11.10
2023-02-18T00:19:01.138Z,11.10
2023-02-18T00:22:22.996Z,11.10
2023-02-18T00:25:45.080Z,11.10
2023-02-18T00:29:07.004Z,11.10
2023-02-18T00:32:28.576Z,11.10
2023-02-18T00:35:51.586Z,11.10
2023-02-18T00:39:13.224Z,11.10
2023-02-18T00:42:34.848Z,11.10
2023-02-18T00:45:56.424Z,11.10
2023-02-18T00:49:18.060Z,11.00
2023-02-18T00:52:41.013Z,11.00
2023-02-18T00:56:02.698Z,11.00
2023-02-18T00:59:24.295Z,11.00
2023-02-18T01:02:45.884Z,11.00
2023-02-18T01:06:08.439Z,11.00
2023-02-18T01:09:31.609Z,11.00
2023-02-18T01:12:53.346Z,11.00
2023-02-18T01:16:15.089Z,11.00
2023-02-18T01:19:36.694Z,10.90
2023-02-18T01:22:58.327Z,11.00
2023-02-18T01:26:21.293Z,10.90
2023-02-18T01:29:42.878Z,10.90
2023-02-18T01:33:04.457Z,10.90
2023-02-18T01:36:26.042Z,10.90
2023-02-18T01:39:47.659Z,10.90
2023-02-18T01:43:11.266Z,10.80
2023-02-18T01:46:32.859Z,10.90
2023-02-18T01:49:54.455Z,10.80
2023-02-18T01:53:17.952Z,10.70
2023-02-18T01:56:41.038Z,10.80
2023-02-18T02:00:06.130Z,10.80
2023-02-18T02:03:27.817Z,10.80
2023-02-18T02:06:49.424Z,10.80
2023-02-18T02:10:12.411Z,10.80
2023-02-18T02:13:39.409Z,10.80
2023-02-18T02:17:04.570Z,10.80
2023-02-18T02:20:41.048Z,10.80
2023-02-18T02:24:35.543Z,10.80
2023-02-18T02:28:12.180Z,10.80
2023-02-18T02:31:42.149Z,10.80
2023-02-18T02:35:09.185Z,10.70
2023-02-18T02:38:34.030Z,10.70
2023-02-18T02:42:04.100Z,10.70
2023-02-18T02:45:29.061Z,10.70
2023-02-18T02:48:54.815Z,10.70
2023-02-18T02:52:20.902Z,10.60
2023-02-18T02:55:42.574Z,10.50
2023-02-18T02:59:05.791Z,10.50
2023-02-18T03:02:34.585Z,10.50
2023-02-18T03:06:05.590Z,10.50
2023-02-18T03:09:34.421Z,10.50
2023-02-18T03:12:59.066Z,10.50
2023-02-18T03:16:24.659Z,10.50
2023-02-18T03:19:49.836Z,10.50
2023-02-18T03:23:15.802Z,10.50
2023-02-18T03:26:41.126Z,10.50
2023-02-18T03:30:07.309Z,10.60
2023-02-18T03:33:32.182Z,10.50
2023-02-18T03:36:54.024Z,10.50
2023-02-18T03:40:16.176Z,10.50
2023-02-18T03:43:40.094Z,10.50
2023-02-18T03:47:02.093Z,10.50
2023-02-18T03:50:24.126Z,10.30
2023-02-18T03:53:45.771Z,10.20
2023-02-18T03:57:07.333Z,10.10
2023-02-18T04:00:30.279Z,10.00
2023-02-18T04:03:51.921Z,9.90
2023-02-18T04:07:13.614Z,9.80
2023-02-18T04:10:35.226Z,9.70
2023-02-18T04:13:56.802Z,9.60
2023-02-18T04:17:19.758Z,9.50
2023-02-18T04:20:41.362Z,9.50
2023-02-18T04:24:03.094Z,9.40
2023-02-18T04:27:24.710Z,9.40
2023-02-18T04:30:47.287Z,9.40
2023-02-18T04:34:10.307Z,9.30
2023-02-18T04:37:31.904Z,9.30
2023-02-18T04:40:53.565Z,9.20
2023-02-18T04:44:15.236Z,9.20
2023-02-18T04:47:36.828Z,9.20
2023-02-18T04:50:59.810Z,9.20
2023-02-18T04:54:21.529Z,9.20
2023-02-18T04:57:43.136Z,9.20
2023-02-18T05:01:05.149Z,9.20
2023-02-18T05:04:28.706Z,9.20
2023-02-18T05:07:51.694Z,9.30
2023-02-18T05:11:13.331Z,9.40
2023-02-18T05:14:34.943Z,9.40
2023-02-18T05:17:56.519Z,9.40
2023-02-18T05:21:18.164Z,9.40
2023-02-18T05:24:41.384Z,9.40
2023-02-18T05:28:03.091Z,9.40
2023-02-18T05:31:24.906Z,9.60
2023-02-18T05:34:46.701Z,9.60
2023-02-18T05:38:08.370Z,9.60
2023-02-18T05:41:31.302Z,9.70
2023-02-18T05:44:52.890Z,9.70
2023-02-18T05:48:14.467Z,9.70
2023-02-18T05:51:36.056Z,9.70
2023-02-18T05:54:57.648Z,9.70
2023-02-18T05:58:20.611Z,9.70
2023-02-18T06:01:42.543Z,9.70
2023-02-18T06:05:04.397Z,9.70
2023-02-18T06:08:26.025Z,9.70
2023-02-18T06:11:47.629Z,9.60
2023-02-18T06:15:10.693Z,9.60
2023-02-18T06:18:32.300Z,9.70
2023-02-18T06:21:53.972Z,9.60
2023-02-18T06:25:15.746Z,9.60
2023-02-18T06:28:37.333Z,9.60
2023-02-18T06:32:00.403Z,9.50
2023-02-18T06:35:22.054Z,9.50
2023-02-18T06:38:45.127Z,9.50
2023-02-18T06:42:06.748Z,9.40
2023-02-18T06:45:28.360Z,9.40
2023-02-18T06:48:51.476Z,9.50
2023-02-18T06:52:13.135Z,9.60
2023-02-18T06:55:35.300Z,9.70
2023-02-18T06:58:56.921Z,9.80
2023-02-18T07:02:18.528Z,9.80
2023-02-18T07:05:41.718Z,10.00
2023-02-18T07:09:04.179Z,10.10
2023-02-18T07:12:25.792Z,10.10
2023-02-18T07:15:47.422Z,10.20
2023-02-18T07:19:09.037Z,10.30
2023-02-18T07:22:32.191Z,10.40
2023-02-18T07:26:02.186Z,10.40
2023-02-18T07:29:23.763Z,10.50
2023-02-18T07:32:45.387Z,10.60
2023-02-18T07:36:08.099Z,10.70
2023-02-18T07:39:31.213Z,10.70
2023-02-18T07:42:52.823Z,10.70
2023-02-18T07:46:14.800Z,10.70
2023-02-18T07:49:36.460Z,10.70
2023-02-18T07:52:58.051Z,10.80
2023-02-18T07:56:20.975Z,10.90
2023-02-18T07:59:42.704Z,10.90
2023-02-18T08:03:04.424Z,11.00
2023-02-18T08:06:28.010Z,11.10
2023-02-18T08:09:49.673Z,11.20
2023-02-18T08:13:12.683Z,11.40
2023-02-18T08:16:34.337Z,11.50
2023-02-18T08:19:55.947Z,11.50
2023-02-18T08:23:18.436Z,11.40
2023-02-18T08:26:54.285Z,11.40
2023-02-18T08:30:22.510Z,11.30
2023-02-18T08:33:44.169Z,11.20
2023-02-18T08:37:05.872Z,11.30
2023-02-18T08:40:27.657Z,11.30
2023-02-18T08:43:49.426Z,11.30
2023-02-18T08:48:18.808Z,11.30
2023-02-18T08:50:54.038Z,11.40
2023-02-18T08:54:15.699Z,11.40
2023-02-18T08:57:37.287Z,11.50
2023-02-18T09:01:01.813Z,11.50
2023-02-18T09:04:24.872Z,11.50
2023-02-18T09:07:46.486Z,11.60
2023-02-18T09:11:08.440Z,11.70
2023-02-18T09:14:30.267Z,11.70
2023-02-18T09:17:51.873Z,11.70
2023-02-18T09:21:15.400Z,11.80
2023-02-18T09:24:37.325Z,11.90
2023-02-18T09:27:58.913Z,11.90
2023-02-18T09:31:21.511Z,11.90
2023-02-18T09:34:43.511Z,12.00
2023-02-18T09:38:06.489Z,12.00
2023-02-18T09:41:31.451Z,12.20
2023-02-18T09:44:55.169Z,12.30
2023-02-18T09:48:16.731Z,12.40
2023-02-18T09:51:38.353Z,12.50
2023-02-18T09:55:01.562Z,12.50
2023-02-18T09:58:24.775Z,12.50
2023-02-18T10:01:47.162Z,12.60
2023-02-18T10:05:13.741Z,12.60
2023-02-18T10:08:36.394Z,12.70
2023-02-18T10:12:02.641Z,12.80
2023-02-18T10:15:30.029Z,12.90
2023-02-18T10:18:53.537Z,13.10
2023-02-18T10:22:16.290Z,13.20
2023-02-18T10:25:42.168Z,13.50
2023-02-18T10:29:13.387Z,13.50
2023-02-18T10:32:36.560Z,13.50
2023-02-18T10:36:02.607Z,13.50
2023-02-18T10:39:30.824Z,13.60
2023-02-18T10:42:59.096Z,13.60
2023-02-18T10:46:27.008Z,13.70
2023-02-18T10:49:58.801Z,13.70
2023-02-18T10:53:25.474Z,13.80
2023-02-18T10:56:48.627Z,13.80
2023-02-18T11:00:15.774Z,13.80
2023-02-18T11:03:43.237Z,13.90
2023-02-18T11:07:06.225Z,14.00
2023-02-18T11:10:30.691Z,14.00
2023-02-18T11:13:53.231Z,13.90
2023-02-18T11:17:16.776Z,13.80
2023-02-18T11:20:40.324Z,13.90
2023-02-18T11:24:06.427Z,14.10
2023-02-18T11:27:30.764Z,14.10
2023-02-18T11:30:54.199Z,14.20
2023-02-18T11:34:18.191Z,14.30
2023-02-18T11:37:41.133Z,14.50
2023-02-18T11:41:07.250Z,14.60
2023-02-18T11:44:30.612Z,14.70
2023-02-18T11:47:58.411Z,14.80
2023-02-18T11:51:21.185Z,14.90
2023-02-18T11:54:58.321Z,15.00
2023-02-18T11:58:19.943Z,15.10
2023-02-18T12:01:44.151Z,15.20
2023-02-18T12:05:11.106Z,15.30
2023-02-18T12:08:35.473Z,15.10
2023-02-18T12:12:00.501Z,15.00
2023-02-18T12:15:24.223Z,15.10
2023-02-18T12:19:02.976Z,15.10
2023-02-18T12:22:28.803Z,15.30
2023-02-18T12:25:52.883Z,15.40
2023-02-18T12:29:24.327Z,15.50
2023-02-18T12:32:49.202Z,15.20
2023-02-18T12:36:13.655Z,15.40
2023-02-18T12:39:41.837Z,15.60
2023-02-18T12:43:08.699Z,15.60
2023-02-18T12:46:38.332Z,15.60
2023-02-18T12:50:20.192Z,15.50
2023-02-18T12:53:49.264Z,15.40
2023-02-18T12:57:27.500Z,15.20
2023-02-18T13:01:00.370Z,15.00
2023-02-18T13:04:27.499Z,15.00
2023-02-18T13:08:05.817Z,15.10
2023-02-18T13:11:31.839Z,15.10
2023-02-18T13:14:55.203Z,15.10
2023-02-18T13:18:20.337Z,15.00
2023-02-18T13:21:44.002Z,15.10
2023-02-18T13:25:06.752Z,15.00
2023-02-18T13:28:32.740Z,14.90
2023-02-18T13:32:00.698Z,14.80
2023-02-18T13:35:25.269Z,14.70
2023-02-18T13:38:55.539Z,14.50
2023-02-18T13:42:36.808Z,14.50
2023-02-18T13:46:07.965Z,14.40
2023-02-18T13:49:31.988Z,14.50
2023-02-18T13:52:58.512Z,14.50
2023-02-18T13:56:22.904Z,14.60
2023-02-18T13:59:45.712Z,14.60
2023-02-18T14:03:19.915Z,14.50
2023-02-18T14:07:01.636Z,14.30
2023-02-18T14:10:27.864Z,14.30
2023-02-18T14:13:53.978Z,14.20
2023-02-18T14:17:36.297Z,14.10
2023-02-18T14:21:05.600Z,14.10
2023-02-18T14:24:42.110Z,14.00
2023-02-18T14:28:16.209Z,14.00
2023-02-18T14:31:45.078Z,14.00
2023-02-18T14:35:15.076Z,14.00
2023-02-18T14:38:42.706Z,13.90
2023-02-18T14:42:09.370Z,14.00
2023-02-18T14:45:49.124Z,14.00
2023-02-18T14:49:22.327Z,13.90
2023-02-18T14:52:45.243Z,13.70
2023-02-18T14:56:09.969Z,13.60
2023-02-18T14:59:34.564Z,13.50
2023-02-18T15:02:56.205Z,13.50
2023-02-18T15:06:28.278Z,13.50
2023-02-18T15:09:52.500Z,13.50
2023-02-18T15:13:16.570Z,13.50
2023-02-18T15:16:38.522Z,13.50
2023-02-18T15:20:02.939Z,13.60
2023-02-18T15:23:25.933Z,13.60
2023-02-18T15:26:48.504Z,13.70
2023-02-18T15:30:17.981Z,13.80
2023-02-18T15:33:42.919Z,13.90
2023-02-18T15:37:05.444Z,13.80
2023-02-18T15:40:30.444Z,13.80
2023-02-18T15:43:53.486Z,13.70
2023-02-18T15:47:15.335Z,13.60
2023-02-18T15:50:38.018Z,13.60
2023-02-18T15:54:00.597Z,13.50
2023-02-18T15:57:25.909Z,13.50
2023-02-18T16:00:48.804Z,13.50
2023-02-18T16:04:13.146Z,13.50
2023-02-18T16:07:37.695Z,13.50
2023-02-18T16:11:03.052Z,13.50
2023-02-18T16:14:27.747Z,13.40
2023-02-18T16:17:49.335Z,13.30
2023-02-18T16:21:23.490Z,13.30
2023-02-18T16:24:45.141Z,13.20
2023-02-18T16:28:11.728Z,13.10
2023-02-18T16:31:34.703Z,13.00
2023-02-18T16:34:56.413Z,13.00
2023-02-18T16:38:18.763Z,12.90
2023-02-18T16:41:40.380Z,12.90
2023-02-18T16:45:01.998Z,12.80
2023-02-18T16:48:26.950Z,12.80
2023-02-18T16:51:48.658Z,12.70
2023-02-18T16:55:15.392Z,12.70
2023-02-18T16:58:37.012Z,12.60
2023-02-18T17:01:58.655Z,12.60
2023-02-18T17:05:26.896Z,12.60
2023-02-18T17:08:48.909Z,12.60
2023-02-18T17:12:10.533Z,12.60
2023-02-18T17:15:33.884Z,12.60
2023-02-18T17:18:55.496Z,12.50
2023-02-18T17:22:18.476Z,12.50
2023-02-18T17:25:40.533Z,12.50
2023-02-18T17:29:02.153Z,12.40
2023-02-18T17:32:23.789Z,12.40
2023-02-18T17:35:45.635Z,12.40
2023-02-18T17:39:12.137Z,12.40
2023-02-18T17:42:33.733Z,12.30
2023-02-18T17:45:56.981Z,12.40
2023-02-18T17:49:18.699Z,12.40
2023-02-18T17:52:40.325Z,12.40
2023-02-18T17:56:03.352Z,12.40
2023-02-18T17:59:25.028Z,12.30
2023-02-18T18:02:47.079Z,12.30
2023-02-18T18:06:14.318Z,12.20
2023-02-18T18:09:35.905Z,12.30
2023-02-18T18:12:59.073Z,12.20
2023-02-18T18:16:20.944Z,12.20
2023-02-18T18:19:42.570Z,12.10
2023-02-18T18:23:05.357Z,12.10
2023-02-18T18:26:26.953Z,12.10
2023-02-18T18:29:49.893Z,12.10
2023-02-18T18:33:15.974Z,12.10
2023-02-18T18:36:37.553Z,12.10
2023-02-18T18:39:59.171Z,12.00
2023-02-18T18:43:21.969Z,12.00
2023-02-18T18:46:45.137Z,11.90
2023-02-18T18:50:07.137Z,11.90
2023-02-18T18:53:29.632Z,11.90
2023-02-18T18:56:51.220Z,11.90
2023-02-18T19:00:13.479Z,11.90
2023-02-18T19:03:36.425Z,11.90
2023-02-18T19:06:58.000Z,11.90
2023-02-18T19:10:20.288Z,11.90
2023-02-18T19:13:41.946Z,11.90
2023-02-18T19:17:03.853Z,11.90
2023-02-18T19:20:28.728Z,11.90
2023-02-18T19:23:50.379Z,11.90
2023-02-18T19:27:11.963Z,11.90
2023-02-18T19:30:34.250Z,11.90
2023-02-18T19:33:55.831Z,11.80
2023-02-18T19:37:18.794Z,11.90
2023-02-18T19:40:40.674Z,11.80
2023-02-18T19:44:02.240Z,11.80
2023-02-18T19:47:24.556Z,11.80
2023-02-18T19:50:46.099Z,11.80
2023-02-18T19:54:09.057Z,11.80
2023-02-18T19:57:30.727Z,11.70
2023-02-18T20:00:52.630Z,11.70
2023-02-18T20:04:14.258Z,11.70
2023-02-18T20:07:35.855Z,11.70
2023-02-18T20:10:59.057Z,11.60
2023-02-18T20:14:20.714Z,11.60
2023-02-18T20:17:42.316Z,11.60
2023-02-18T20:21:04.186Z,11.60
2023-02-18T20:24:25.977Z,11.50
2023-02-18T20:28:00.206Z,11.50
2023-02-18T20:31:22.674Z,11.40
2023-02-18T20:34:44.348Z,11.40
2023-02-18T20:38:05.924Z,11.30
2023-02-18T20:41:27.600Z,11.30
2023-02-18T20:44:50.549Z,11.30
2023-02-18T20:48:12.160Z,11.30
2023-02-18T20:51:34.192Z,11.30
2023-02-18T20:54:55.862Z,11.30
2023-02-18T20:58:17.482Z,11.30
2023-02-18T21:01:41.223Z,11.30
2023-02-18T21:05:02.978Z,11.20
2023-02-18T21:08:25.095Z,11.20
2023-02-18T21:11:46.716Z,11.10
2023-02-18T21:15:08.898Z,11.10
2023-02-18T21:18:31.833Z,11.10
2023-02-18T21:21:53.462Z,11.10
2023-02-18T21:25:15.134Z,11.10
2023-02-18T21:28:37.125Z,11.10
2023-02-18T21:31:58.786Z,11.10
2023-02-18T21:35:21.974Z,11.00
2023-02-18T21:38:43.751Z,11.00
2023-02-18T21:42:05.555Z,11.00
2023-02-18T21:45:27.204Z,11.00
2023-02-18T21:48:49.851Z,11.00
2023-02-18T21:52:12.878Z,11.00
2023-02-18T21:55:34.467Z,11.00
2023-02-18T21:58:56.089Z,11.00
2023-02-18T22:02:18.561Z,11.00
2023-02-18T22:05:40.200Z,11.00
2023-02-18T22:09:03.906Z,11.00
2023-02-18T22:12:25.933Z,11.00
2023-02-18T22:15:53.765Z,10.90
2023-02-18T22:19:15.440Z,10.90
2023-02-18T22:22:37.348Z,10.90
2023-02-18T22:26:03.347Z,10.90
2023-02-18T22:29:24.921Z,10.90
2023-02-18T22:32:46.514Z,10.90
2023-02-18T22:36:08.882Z,10.90
2023-02-18T22:39:30.449Z,10.90
2023-02-18T22:42:53.380Z,10.90
2023-02-18T22:46:15.883Z,10.90
2023-02-18T22:49:37.504Z,10.90
2023-02-18T22:52:59.118Z,10.90
2023-02-18T22:56:21.339Z,10.90
2023-02-18T22:59:44.286Z,10.90
2023-02-18T23:03:05.893Z,10.90
2023-02-18T23:06:27.693Z,10.90
2023-02-18T23:09:49.416Z,10.80
2023-02-18T23:13:11.027Z,10.90
2023-02-18T23:16:34.085Z,10.80
2023-02-18T23:19:55.673Z,10.80
2023-02-18T23:23:17.279Z,10.80
2023-02-18T23:26:38.970Z,10.80
2023-02-18T23:30:00.623Z,10.80
2023-02-18T23:33:23.638Z,10.80
2023-02-18T23:36:45.228Z,10.80
2023-02-18T23:40:07.431Z,10.70
2023-02-18T23:43:30.049Z,10.70
2023-02-18T23:46:51.703Z,10.70
2023-02-18T23:50:14.666Z,10.70
2023-02-18T23:53:36.863Z,10.70
2023-02-18T23:56:58.512Z,10.70
